createdAt,value
2023-02-06T00:02:36.135Z,17.10
2023-02-06T00:05:38.734Z,17.00
2023-02-06T00:08:41.590Z,17.03
2023-02-06T00:11:43.848Z,16.87
2023-02-06T00:14:46.646Z,16.70
2023-02-06T00:17:48.760Z,16.65
2023-02-06T00:20:51.969Z,16.62
2023-02-06T00:23:55.973Z,16.51
2023-02-06T00:26:59.788Z,16.51
2023-02-06T00:30:02.265Z,16.51
2023-02-06T00:33:04.835Z,16.48
2023-02-06T00:36:07.577Z,16.45
2023-02-06T00:39:11.059Z,16.41
2023-02-06T00:42:12.938Z,16.39
2023-02-06T00:45:15.923Z,16.39
2023-02-06T00:48:18.028Z,16.42
2023-02-06T00:51:21.192Z,16.45
2023-02-06T00:54:23.212Z,16.42
2023-02-06T00:57:25.975Z,16.38
2023-02-06T01:00:28.083Z,16.36
2023-02-06T01:03:30.468Z,16.36
2023-02-06T01:06:33.399Z,16.30
2023-02-06T01:09:35.788Z,16.22
2023-02-06T01:12:38.062Z,16.22
2023-02-06T01:15:40.636Z,16.21
2023-02-06T01:18:42.720Z,16.21
2023-02-06T01:21:45.007Z,16.24
2023-02-06T01:24:47.072Z,16.26
2023-02-06T01:27:49.792Z,16.25
2023-02-06T01:30:51.759Z,16.24
2023-02-06T01:33:57.146Z,16.19
2023-02-06T01:36:59.285Z,16.08
2023-02-06T01:40:01.730Z,16.05
2023-02-06T01:43:03.999Z,15.98
2023-02-06T01:46:08.168Z,16.00
2023-02-06T01:49:19.308Z,16.00
2023-02-06T01:52:25.814Z,15.94
2023-02-06T01:55:27.950Z,16.02
2023-02-06T01:58:38.735Z,16.07
2023-02-06T02:01:42.242Z,16.11
2023-02-06T02:04:46.237Z,16.12
2023-02-06T02:08:01.115Z,16.14
2023-02-06T02:11:06.653Z,16.14
2023-02-06T02:14:11.670Z,16.12
2023-02-06T02:17:13.961Z,16.18
2023-02-06T02:21:05.559Z,16.19
2023-02-06T02:24:27.247Z,16.19
2023-02-06T02:28:06.722Z,16.22
2023-02-06T02:31:35.452Z,16.24
2023-02-06T02:34:46.337Z,16.26
2023-02-06T02:37:56.161Z,16.28
2023-02-06T02:41:42.984Z,16.28
2023-02-06T02:44:51.831Z,16.28
2023-02-06T02:48:09.314Z,16.25
2023-02-06T02:51:12.896Z,16.19
2023-02-06T02:54:16.739Z,16.14
2023-02-06T02:57:24.361Z,16.07
2023-02-06T03:00:27.245Z,16.02
2023-02-06T03:03:32.551Z,16.04
2023-02-06T03:06:37.818Z,15.97
2023-02-06T03:10:18.858Z,15.95
2023-02-06T03:13:47.195Z,15.91
2023-02-06T03:16:54.589Z,15.93
2023-02-06T03:19:59.765Z,15.98
2023-02-06T03:23:04.000Z,15.98
2023-02-06T03:26:10.279Z,15.97
2023-02-06T03:29:16.983Z,16.01
2023-02-06T03:32:45.477Z,16.05
2023-02-06T03:35:47.795Z,16.14
2023-02-06T03:38:52.953Z,16.17
2023-02-06T03:41:57.616Z,16.17
2023-02-06T03:45:19.864Z,16.18
2023-02-06T03:48:28.648Z,16.21
2023-02-06T03:51:36.637Z,16.18
2023-02-06T03:54:45.371Z,16.18
2023-02-06T03:57:53.586Z,16.19
2023-02-06T04:00:55.931Z,16.18
2023-02-06T04:03:58.419Z,16.19
2023-02-06T04:07:25.728Z,16.19
2023-02-06T04:10:28.539Z,16.15
2023-02-06T04:13:31.278Z,16.08
2023-02-06T04:16:33.716Z,16.01
2023-02-06T04:19:36.939Z,15.91
2023-02-06T04:22:40.738Z,15.88
2023-02-06T04:25:43.092Z,15.88
2023-02-06T04:28:46.852Z,15.85
2023-02-06T04:31:49.167Z,15.87
2023-02-06T04:34:51.330Z,15.83
2023-02-06T04:37:54.713Z,15.85
2023-02-06T04:41:04.919Z,15.90
2023-02-06T04:44:07.431Z,15.87
2023-02-06T04:47:09.668Z,15.90
2023-02-06T04:50:12.454Z,15.98
2023-02-06T04:53:14.635Z,16.02
2023-02-06T04:56:17.064Z,16.04
2023-02-06T04:59:19.317Z,16.02
2023-02-06T05:02:22.036Z,16.02
2023-02-06T05:05:24.152Z,16.00
2023-02-06T05:08:27.427Z,16.01
2023-02-06T05:11:29.311Z,15.97
2023-02-06T05:14:31.908Z,15.97
2023-02-06T05:17:33.963Z,15.83
2023-02-06T05:20:36.692Z,15.77
2023-02-06T05:23:38.899Z,15.68
2023-02-06T05:26:41.137Z,15.67
2023-02-06T05:29:43.417Z,15.56
2023-02-06T05:32:45.689Z,15.51
2023-02-06T05:35:47.618Z,15.49
2023-02-06T05:38:50.975Z,15.58
2023-02-06T05:41:53.249Z,15.70
2023-02-06T05:44:56.609Z,15.80
2023-02-06T05:47:59.087Z,15.84
2023-02-06T05:51:01.962Z,15.87
2023-02-06T05:54:04.420Z,15.85
2023-02-06T05:57:07.176Z,15.84
2023-02-06T06:00:10.542Z,15.90
2023-02-06T06:03:15.633Z,15.90
2023-02-06T06:06:17.654Z,15.95
2023-02-06T06:09:20.276Z,16.01
2023-02-06T06:12:22.495Z,16.04
2023-02-06T06:15:24.904Z,16.04
2023-02-06T06:18:27.200Z,16.04
2023-02-06T06:21:30.048Z,16.04
2023-02-06T06:24:33.227Z,16.02
2023-02-06T06:27:36.134Z,16.02
2023-02-06T06:30:38.311Z,16.05
2023-02-06T06:33:41.769Z,16.00
2023-02-06T06:36:44.582Z,16.04
2023-02-06T06:39:48.770Z,16.09
2023-02-06T06:42:50.829Z,16.09
2023-02-06T06:45:53.315Z,16.08
2023-02-06T06:48:55.930Z,16.04
2023-02-06T06:51:58.164Z,16.08
2023-02-06T06:55:00.437Z,16.05
2023-02-06T06:58:04.313Z,16.07
2023-02-06T07:01:07.029Z,16.08
2023-02-06T07:04:09.984Z,16.08
2023-02-06T07:07:13.059Z,16.05
2023-02-06T07:10:15.920Z,16.07
2023-02-06T07:13:18.148Z,16.11
2023-02-06T07:16:20.895Z,16.14
2023-02-06T07:19:23.106Z,16.11
2023-02-06T07:22:26.511Z,16.14
2023-02-06T07:25:31.840Z,16.15
2023-02-06T07:28:34.852Z,16.12
2023-02-06T07:31:37.168Z,16.12
2023-02-06T07:34:40.705Z,16.15
2023-02-06T07:37:42.810Z,16.19
2023-02-06T07:40:45.921Z,16.22
2023-02-06T07:43:48.326Z,16.21
2023-02-06T07:46:53.013Z,16.24
2023-02-06T07:49:55.062Z,16.22
2023-02-06T07:52:59.826Z,16.15
2023-02-06T07:56:02.249Z,16.12
2023-02-06T07:59:05.148Z,16.12
2023-02-06T08:02:09.263Z,16.17
2023-02-06T08:05:12.108Z,16.29
2023-02-06T08:08:14.195Z,16.30
2023-02-06T08:11:20.932Z,16.30
2023-02-06T08:14:23.466Z,16.29
2023-02-06T08:17:26.370Z,16.29
2023-02-06T08:20:28.318Z,16.24
2023-02-06T08:23:31.674Z,16.22
2023-02-06T08:26:33.825Z,16.21
2023-02-06T08:29:42.396Z,16.24
2023-02-06T08:32:45.836Z,16.17
2023-02-06T08:35:50.237Z,16.17
2023-02-06T08:38:54.213Z,16.18
2023-02-06T08:41:57.401Z,16.22
2023-02-06T08:44:59.806Z,16.30
2023-02-06T08:48:02.129Z,16.36
2023-02-06T08:51:06.137Z,16.38
2023-02-06T08:54:11.127Z,16.47
2023-02-06T08:57:13.248Z,16.44
2023-02-06T09:00:17.588Z,16.47
2023-02-06T09:03:22.287Z,16.45
2023-02-06T09:06:25.892Z,16.44
2023-02-06T09:09:27.862Z,16.38
2023-02-06T09:12:30.011Z,16.36
2023-02-06T09:15:32.430Z,16.51
2023-02-06T09:18:35.724Z,16.53
2023-02-06T09:21:38.561Z,16.68
2023-02-06T09:24:43.533Z,16.65
2023-02-06T09:27:46.863Z,16.68
2023-02-06T09:30:53.596Z,16.72
2023-02-06T09:33:57.170Z,16.75
2023-02-06T09:37:04.803Z,16.63
2023-02-06T09:40:08.287Z,16.80
2023-02-06T09:43:13.970Z,16.76
2023-02-06T09:46:21.570Z,16.68
2023-02-06T09:49:42.032Z,16.80
2023-02-06T09:53:30.490Z,16.86
2023-02-06T09:56:43.004Z,16.87
2023-02-06T09:59:50.208Z,16.89
2023-02-06T10:03:33.388Z,16.80
2023-02-06T10:06:48.217Z,16.92
2023-02-06T10:10:03.781Z,16.90
2023-02-06T10:13:12.903Z,16.76
2023-02-06T10:16:25.278Z,16.72
2023-02-06T10:19:50.013Z,16.69
2023-02-06T10:23:03.215Z,16.62
2023-02-06T10:26:17.366Z,16.65
2023-02-06T10:29:29.109Z,16.60
2023-02-06T10:32:41.222Z,16.60
2023-02-06T10:36:00.134Z,16.51
2023-02-06T10:39:22.109Z,16.42
2023-02-06T10:42:24.750Z,16.39
2023-02-06T10:45:38.803Z,16.33
2023-02-06T10:48:49.328Z,16.47
2023-02-06T10:51:57.214Z,16.45
2023-02-06T10:55:13.013Z,16.33
2023-02-06T10:58:15.691Z,16.35
2023-02-06T11:01:26.036Z,16.42
2023-02-06T11:04:42.537Z,16.38
2023-02-06T11:07:52.482Z,16.08
2023-02-06T11:10:56.065Z,15.98
2023-02-06T11:14:17.007Z,16.08
2023-02-06T11:17:21.126Z,16.24
2023-02-06T11:20:25.956Z,16.38
2023-02-06T11:23:30.596Z,16.51
2023-02-06T11:26:34.170Z,16.60
2023-02-06T11:29:43.885Z,16.66
2023-02-06T11:32:58.988Z,16.52
2023-02-06T11:36:20.175Z,16.44
2023-02-06T11:39:35.716Z,16.51
2023-02-06T11:42:38.210Z,16.55
2023-02-06T11:45:41.440Z,16.65
2023-02-06T11:49:03.297Z,16.68
2023-02-06T11:52:06.072Z,16.73
2023-02-06T11:55:30.446Z,16.87
2023-02-06T11:58:33.256Z,16.90
2023-02-06T12:01:44.467Z,17.07
2023-02-06T12:04:47.189Z,16.87
2023-02-06T12:08:10.685Z,16.90
2023-02-06T12:11:54.781Z,16.90
2023-02-06T12:15:18.189Z,16.92
2023-02-06T12:18:32.415Z,16.92
2023-02-06T12:21:34.676Z,16.96
2023-02-06T12:24:42.213Z,17.07
2023-02-06T12:27:45.357Z,17.17
2023-02-06T12:30:55.893Z,17.23
2023-02-06T12:34:32.255Z,17.33
2023-02-06T12:37:52.628Z,17.40
2023-02-06T12:41:03.618Z,17.45
2023-02-06T12:44:21.065Z,17.47
2023-02-06T12:47:46.767Z,17.47
2023-02-06T12:51:14.738Z,17.51
2023-02-06T12:54:30.637Z,17.54
2023-02-06T12:57:34.808Z,17.63
2023-02-06T13:00:55.417Z,17.63
2023-02-06T13:04:04.674Z,17.77
2023-02-06T13:07:12.145Z,17.71
2023-02-06T13:10:36.663Z,17.74
2023-02-06T13:13:41.904Z,17.77
2023-02-06T13:16:44.669Z,17.78
2023-02-06T13:19:47.244Z,18.08
2023-02-06T13:22:54.561Z,17.96
2023-02-06T13:25:56.730Z,17.44
2023-02-06T13:29:01.280Z,16.82
2023-02-06T13:32:12.516Z,16.18
2023-02-06T13:35:22.367Z,16.89
2023-02-06T13:38:26.717Z,17.94
2023-02-06T13:41:31.021Z,16.80
2023-02-06T13:44:36.815Z,17.88
2023-02-06T13:48:06.160Z,19.00
2023-02-06T13:51:41.724Z,19.21
2023-02-06T13:55:29.392Z,19.38
2023-02-06T13:58:34.477Z,19.36
2023-02-06T14:01:36.974Z,19.32
2023-02-06T14:04:39.821Z,19.34
2023-02-06T14:08:26.257Z,19.32
2023-02-06T14:11:54.938Z,19.28
2023-02-06T14:15:07.912Z,19.31
2023-02-06T14:18:19.119Z,19.25
2023-02-06T14:21:37.568Z,19.20
2023-02-06T14:25:09.345Z,18.80
2023-02-06T14:28:31.279Z,18.93
2023-02-06T14:32:20.922Z,18.86
2023-02-06T14:35:50.850Z,19.07
2023-02-06T14:39:03.627Z,19.17
2023-02-06T14:42:11.634Z,19.44
2023-02-06T14:45:35.977Z,19.18
2023-02-06T14:48:58.998Z,19.22
2023-02-06T14:52:44.077Z,18.53
2023-02-06T14:55:48.244Z,18.69
2023-02-06T14:58:51.457Z,19.27
2023-02-06T15:10:36.355Z,18.90
2023-02-06T15:13:50.773Z,18.55
2023-02-06T15:21:48.796Z,18.56
2023-02-06T15:25:42.365Z,18.57
2023-02-06T15:34:14.092Z,18.45
2023-02-06T15:37:57.168Z,18.64
2023-02-06T15:46:54.479Z,19.00
2023-02-06T15:50:00.779Z,18.91
2023-02-06T15:53:18.390Z,18.84
2023-02-06T15:56:29.738Z,18.86
2023-02-06T15:59:36.216Z,18.77
2023-02-06T16:02:40.306Z,18.70
2023-02-06T16:05:43.418Z,18.66
2023-02-06T16:08:51.897Z,18.59
2023-02-06T16:11:57.181Z,18.49
2023-02-06T16:15:01.848Z,18.55
2023-02-06T16:18:31.031Z,18.53
2023-02-06T16:21:35.376Z,18.57
2023-02-06T16:24:38.013Z,18.56
2023-02-06T16:27:46.431Z,18.46
2023-02-06T16:31:04.920Z,18.43
2023-02-06T16:34:34.862Z,18.45
2023-02-06T16:37:36.886Z,18.45
2023-02-06T16:40:39.515Z,18.45
2023-02-06T16:43:42.477Z,18.39
2023-02-06T16:46:47.063Z,18.33
2023-02-06T16:49:50.013Z,17.78
2023-02-06T16:52:55.615Z,17.09
2023-02-06T16:55:58.392Z,14.67
2023-02-06T16:59:00.955Z,12.67
2023-02-06T17:02:19.608Z,12.16
2023-02-06T17:05:27.886Z,11.19
2023-02-06T17:08:38.641Z,11.61
2023-02-06T17:11:41.091Z,14.37
2023-02-06T17:14:43.813Z,16.08
2023-02-06T17:17:47.429Z,17.02
2023-02-06T17:20:52.995Z,17.47
2023-02-06T17:23:55.884Z,17.70
2023-02-06T17:26:59.604Z,17.81
2023-02-06T17:30:04.192Z,17.86
2023-02-06T17:33:07.189Z,17.89
2023-02-06T17:36:18.680Z,17.88
2023-02-06T17:39:21.736Z,18.01
2023-02-06T17:42:26.271Z,18.01
2023-02-06T17:45:28.604Z,18.04
2023-02-06T17:48:34.446Z,18.04
2023-02-06T17:51:40.425Z,18.02
2023-02-06T17:54:43.807Z,18.02
2023-02-06T17:57:46.580Z,18.08
2023-02-06T18:00:50.511Z,18.01
2023-02-06T18:03:52.933Z,18.08
2023-02-06T18:06:56.365Z,18.09
2023-02-06T18:09:58.588Z,18.09
2023-02-06T18:13:01.197Z,18.08
2023-02-06T18:16:03.625Z,18.18
2023-02-06T18:19:05.905Z,18.13
2023-02-06T18:22:17.382Z,18.19
2023-02-06T18:25:20.313Z,18.12
2023-02-06T18:28:22.916Z,18.06
2023-02-06T18:31:27.170Z,18.08
2023-02-06T18:34:30.865Z,18.09
2023-02-06T18:37:33.430Z,18.12
2023-02-06T18:40:49.834Z,18.15
2023-02-06T18:53:09.886Z,17.88
2023-02-06T18:56:16.881Z,17.79
2023-02-06T18:59:45.034Z,16.25
2023-02-06T19:02:48.465Z,15.26
2023-02-06T19:05:51.101Z,16.55
2023-02-06T19:08:53.585Z,17.30
2023-02-06T19:11:55.783Z,17.67
2023-02-06T19:14:59.105Z,17.78
2023-02-06T19:18:03.521Z,17.89
2023-02-06T19:21:07.927Z,17.92
2023-02-06T19:24:19.135Z,17.92
2023-02-06T19:27:22.573Z,17.94
2023-02-06T19:30:30.874Z,17.91
2023-02-06T19:37:13.198Z,17.82
2023-02-06T19:40:50.383Z,17.77
2023-02-06T19:44:06.695Z,17.78
2023-02-06T19:47:11.811Z,17.94
2023-02-06T19:50:31.018Z,18.01
2023-02-06T19:53:47.404Z,18.08
2023-02-06T19:56:50.268Z,17.96
2023-02-06T20:09:48.483Z,18.12
2023-02-06T20:12:51.933Z,18.16
2023-02-06T20:15:54.876Z,18.24
2023-02-06T20:19:43.250Z,18.26
2023-02-06T20:23:32.844Z,18.28
2023-02-06T20:27:20.151Z,18.36
2023-02-06T20:30:24.711Z,18.39
2023-02-06T20:33:27.558Z,18.37
2023-02-06T20:36:30.190Z,18.42
2023-02-06T20:39:32.792Z,18.40
2023-02-06T20:42:39.908Z,18.43
2023-02-06T20:45:42.596Z,18.39
2023-02-06T20:48:46.519Z,18.33
2023-02-06T20:51:51.427Z,18.29
2023-02-06T20:54:54.528Z,18.33
2023-02-06T20:57:56.553Z,18.32
2023-02-06T21:00:58.941Z,18.30
2023-02-06T21:04:04.014Z,18.28
2023-02-06T21:07:08.058Z,18.33
2023-02-06T21:10:10.132Z,18.30
2023-02-06T21:13:12.474Z,18.30
2023-02-06T21:16:14.532Z,18.29
2023-02-06T21:19:19.770Z,18.39
2023-02-06T21:22:21.864Z,18.46
2023-02-06T21:25:28.125Z,18.49
2023-02-06T21:28:40.089Z,18.50
2023-02-06T21:32:12.651Z,18.52
2023-02-06T21:35:16.495Z,18.50
2023-02-06T21:38:22.012Z,18.53
2023-02-06T21:41:28.850Z,18.50
2023-02-06T21:48:29.797Z,18.63
2023-02-06T21:51:32.091Z,18.66
2023-02-06T21:54:34.480Z,18.63
2023-02-06T21:57:36.466Z,18.66
2023-02-06T22:00:38.795Z,18.64
2023-02-06T22:03:41.301Z,18.66
2023-02-06T22:06:43.930Z,18.64
2023-02-06T22:09:46.990Z,18.64
2023-02-06T22:12:50.019Z,18.61
2023-02-06T22:15:52.232Z,18.66
2023-02-06T22:18:56.050Z,18.67
2023-02-06T22:21:58.998Z,18.66
2023-02-06T22:25:01.717Z,18.67
2023-02-06T22:28:04.067Z,18.70
2023-02-06T22:31:16.484Z,18.81
2023-02-06T22:34:21.181Z,18.83
2023-02-06T22:37:23.723Z,18.70
2023-02-06T22:40:25.847Z,18.47
2023-02-06T22:43:29.652Z,18.40
2023-02-06T22:46:36.618Z,18.50
2023-02-06T22:49:39.625Z,18.56
2023-02-06T22:53:00.203Z,18.59
2023-02-06T22:56:28.688Z,18.53
2023-02-06T22:59:30.947Z,18.52
2023-02-06T23:02:33.498Z,18.52
2023-02-06T23:05:36.367Z,18.47
2023-02-06T23:08:39.238Z,18.52
2023-02-06T23:11:42.161Z,18.53
2023-02-06T23:14:44.493Z,18.47
2023-02-06T23:17:49.546Z,18.49
2023-02-06T23:20:55.425Z,18.53
2023-02-06T23:23:58.603Z,18.50
2023-02-06T23:27:01.390Z,18.52
2023-02-06T23:30:04.052Z,18.49
2023-02-06T23:33:06.781Z,18.49
2023-02-06T23:36:14.673Z,18.47
2023-02-06T23:39:17.135Z,18.45
2023-02-06T23:42:19.188Z,18.36
2023-02-06T23:45:21.858Z,18.26
2023-02-06T23:48:23.883Z,18.18
2023-02-06T23:51:27.058Z,18.22
2023-02-06T23:54:28.972Z,18.28
2023-02-06T23:57:31.419Z,18.15
